createdAt,value
2019-05-18T00:02:22.170Z,20.90
2019-05-18T00:04:48.158Z,23.00
2019-05-18T00:07:14.135Z,22.13
2019-05-18T00:09:40.155Z,22.70
2019-05-18T00:12:06.184Z,23.13
2019-05-18T00:14:32.164Z,23.37
2019-05-18T00:16:58.174Z,23.20
2019-05-18T00:19:24.224Z,23.10
2019-05-18T00:21:50.305Z,24.37
2019-05-18T00:24:16.371Z,21.87
2019-05-18T00:26:42.406Z,23.43
2019-05-18T00:29:08.386Z,23.50
2019-05-18T00:31:34.455Z,24.10
2019-05-18T00:34:00.440Z,23.57
2019-05-18T00:36:27.332Z,24.33
2019-05-18T00:38:53.346Z,24.67
2019-05-18T00:41:19.336Z,24.27
2019-05-18T00:43:45.453Z,23.23
2019-05-18T00:46:11.477Z,23.40
2019-05-18T00:48:37.506Z,23.63
2019-05-18T00:51:03.848Z,22.13
2019-05-18T00:53:29.886Z,22.30
2019-05-18T00:55:55.933Z,22.17
2019-05-18T00:58:21.917Z,22.80
2019-05-18T01:00:47.981Z,22.33
2019-05-18T01:03:14.073Z,21.47
2019-05-18T01:05:40.120Z,22.93
2019-05-18T01:08:06.104Z,23.60
2019-05-18T01:10:32.080Z,21.73
2019-05-18T01:12:58.101Z,22.73
2019-05-18T01:15:24.089Z,23.43
2019-05-18T01:17:57.208Z,23.37
2019-05-18T01:20:18.285Z,22.70
2019-05-18T01:22:44.338Z,21.93
2019-05-18T01:25:10.505Z,21.77
2019-05-18T01:27:36.510Z,20.57
2019-05-18T01:30:08.118Z,23.87
2019-05-18T01:32:34.083Z,22.60
2019-05-18T01:35:00.110Z,22.07
2019-05-18T01:37:26.391Z,22.30
2019-05-18T01:39:52.568Z,24.00
2019-05-18T01:42:18.539Z,22.30
2019-05-18T01:44:44.580Z,24.40
2019-05-18T01:47:10.558Z,25.00
2019-05-18T01:49:36.633Z,23.50
2019-05-18T01:52:02.610Z,25.53
2019-05-18T01:54:28.761Z,24.17
2019-05-18T01:56:54.907Z,25.00
2019-05-18T01:59:20.901Z,24.10
2019-05-18T02:01:46.893Z,24.73
2019-05-18T02:04:12.948Z,25.50
2019-05-18T02:06:38.938Z,25.60
2019-05-18T02:09:06.650Z,26.63
2019-05-18T02:11:32.636Z,26.47
2019-05-18T02:13:58.738Z,25.50
2019-05-18T02:16:24.755Z,25.80
2019-05-18T02:18:50.777Z,24.97
2019-05-18T02:21:16.822Z,24.80
2019-05-18T02:23:42.957Z,24.80
2019-05-18T02:26:09.063Z,23.57
2019-05-18T02:28:35.045Z,22.20
2019-05-18T02:31:01.084Z,24.20
2019-05-18T02:33:27.157Z,21.53
2019-05-18T02:35:53.172Z,22.13
2019-05-18T02:38:19.273Z,22.00
2019-05-18T02:40:46.197Z,21.30
2019-05-18T02:43:12.886Z,20.40
2019-05-18T02:45:38.953Z,19.97
2019-05-18T02:48:05.191Z,18.80
2019-05-18T02:50:31.269Z,17.77
2019-05-18T02:52:57.317Z,17.10
2019-05-18T02:55:23.356Z,18.97
2019-05-18T02:57:49.411Z,18.80
2019-05-18T03:00:16.108Z,18.63
2019-05-18T03:02:42.186Z,17.37
2019-05-18T03:05:08.769Z,19.63
2019-05-18T03:07:34.898Z,18.13
2019-05-18T03:10:01.189Z,17.43
2019-05-18T03:12:27.237Z,22.43
2019-05-18T03:14:53.257Z,19.90
2019-05-18T03:17:19.505Z,21.57
2019-05-18T03:19:45.531Z,19.87
2019-05-18T03:22:11.497Z,21.90
2019-05-18T03:24:37.520Z,19.30
2019-05-18T03:27:03.513Z,19.40
2019-05-18T03:29:29.526Z,20.43
2019-05-18T03:31:55.605Z,18.47
2019-05-18T03:34:21.675Z,16.73
2019-05-18T03:36:47.781Z,17.03
2019-05-18T03:39:13.805Z,19.80
2019-05-18T03:41:39.801Z,19.67
2019-05-18T03:44:05.854Z,17.50
2019-05-18T03:46:31.839Z,18.90
2019-05-18T03:48:57.818Z,20.80
2019-05-18T03:51:23.823Z,21.60
2019-05-18T03:53:49.838Z,21.80
2019-05-18T03:56:15.809Z,19.00
2019-05-18T03:58:41.829Z,18.73
2019-05-18T04:01:07.806Z,20.93
2019-05-18T04:03:33.828Z,19.60
2019-05-18T04:05:59.831Z,18.77
2019-05-18T04:08:25.798Z,19.50
2019-05-18T04:10:51.838Z,18.93
2019-05-18T04:13:18.172Z,18.40
2019-05-18T04:15:44.189Z,18.17
2019-05-18T04:18:10.246Z,17.80
2019-05-18T04:20:36.654Z,18.17
2019-05-18T04:23:02.972Z,18.20
2019-05-18T04:25:29.009Z,17.10
2019-05-18T04:27:55.001Z,17.97
2019-05-18T04:30:21.027Z,16.77
2019-05-18T04:32:47.341Z,17.97
2019-05-18T04:35:13.471Z,17.93
2019-05-18T04:37:39.578Z,18.47
2019-05-18T04:40:06.216Z,17.50
2019-05-18T04:42:32.252Z,18.87
2019-05-18T04:44:58.245Z,20.07
2019-05-18T04:47:24.243Z,21.63
2019-05-18T04:50:04.451Z,21.30
2019-05-18T04:52:18.161Z,22.47
2019-05-18T04:54:44.172Z,23.90
2019-05-18T04:57:10.221Z,26.10
2019-05-18T04:59:36.197Z,24.07
2019-05-18T05:02:02.253Z,25.00
2019-05-18T05:04:28.369Z,24.20
2019-05-18T05:06:54.437Z,23.67
2019-05-18T05:09:20.456Z,24.30
2019-05-18T05:11:46.436Z,26.53
2019-05-18T05:14:12.500Z,23.83
2019-05-18T05:16:38.602Z,24.60
2019-05-18T05:19:04.780Z,21.67
2019-05-18T05:21:31.058Z,22.80
2019-05-18T05:23:57.008Z,21.20
2019-05-18T05:26:23.055Z,23.13
2019-05-18T05:28:49.048Z,22.57
2019-05-18T05:31:15.067Z,21.80
2019-05-18T05:33:41.095Z,23.10
2019-05-18T05:36:07.165Z,21.87
2019-05-18T05:38:33.267Z,20.70
2019-05-18T05:40:59.317Z,20.57
2019-05-18T05:43:25.453Z,21.30
2019-05-18T05:45:51.601Z,21.57
2019-05-18T05:48:17.575Z,21.83
2019-05-18T05:50:43.572Z,21.87
2019-05-18T05:53:09.592Z,22.67
2019-05-18T05:55:35.618Z,24.87
2019-05-18T05:58:01.641Z,23.70
2019-05-18T06:00:27.700Z,23.87
2019-05-18T06:02:53.790Z,23.97
2019-05-18T06:05:19.822Z,27.30
2019-05-18T06:07:45.882Z,29.90
2019-05-18T06:10:12.586Z,26.43
2019-05-18T06:12:38.604Z,29.10
2019-05-18T06:15:05.532Z,28.23
2019-05-18T06:17:31.556Z,28.13
2019-05-18T06:19:57.564Z,25.30
2019-05-18T06:22:23.622Z,25.63
2019-05-18T06:24:49.705Z,28.57
2019-05-18T06:27:15.680Z,28.73
2019-05-18T06:29:41.736Z,28.10
2019-05-18T06:32:07.739Z,30.00
2019-05-18T06:34:33.783Z,28.53
2019-05-18T06:36:59.794Z,30.63
2019-05-18T06:39:25.938Z,27.63
2019-05-18T06:41:52.270Z,30.10
2019-05-18T06:44:18.367Z,28.30
2019-05-18T06:46:44.504Z,27.60
2019-05-18T06:49:10.546Z,27.37
2019-05-18T06:51:36.572Z,26.80
2019-05-18T06:54:02.685Z,28.00
2019-05-18T06:56:30.930Z,28.90
2019-05-18T06:58:58.662Z,26.90
2019-05-18T07:01:24.658Z,27.57
2019-05-18T07:03:50.638Z,28.67
2019-05-18T07:06:16.707Z,27.00
2019-05-18T07:08:42.730Z,27.50
2019-05-18T07:11:08.734Z,26.33
2019-05-18T07:13:34.838Z,28.27
2019-05-18T07:16:00.824Z,28.57
2019-05-18T07:18:26.935Z,28.60
2019-05-18T07:20:52.971Z,28.23
2019-05-18T07:23:18.964Z,27.87
2019-05-18T07:25:45.024Z,28.67
2019-05-18T07:28:11.162Z,29.67
2019-05-18T07:30:37.230Z,28.97
2019-05-18T07:33:03.251Z,28.17
2019-05-18T07:35:29.279Z,30.27
2019-05-18T07:37:55.341Z,30.47
2019-05-18T07:40:21.373Z,30.80
2019-05-18T07:42:47.387Z,32.50
2019-05-18T07:45:13.684Z,31.23
2019-05-18T07:47:39.715Z,30.00
2019-05-18T07:50:06.355Z,31.40
2019-05-18T07:52:32.346Z,32.90
2019-05-18T07:54:58.341Z,32.03
2019-05-18T07:57:24.313Z,30.40
2019-05-18T07:59:50.315Z,36.20
2019-05-18T08:02:16.400Z,34.77
2019-05-18T08:04:42.469Z,34.03
2019-05-18T08:07:08.682Z,34.73
2019-05-18T08:09:34.925Z,34.27
2019-05-18T08:12:01.050Z,38.40
2019-05-18T08:14:27.280Z,35.47
2019-05-18T08:16:53.451Z,38.93
2019-05-18T08:19:19.620Z,35.27
2019-05-18T08:21:53.285Z,34.57
2019-05-18T08:24:13.863Z,38.43
2019-05-18T08:26:40.108Z,37.47
2019-05-18T08:29:06.095Z,38.67
2019-05-18T08:31:32.110Z,36.90
2019-05-18T08:33:58.275Z,38.27
2019-05-18T08:36:24.265Z,40.27
2019-05-18T08:38:50.272Z,36.00
2019-05-18T08:41:16.276Z,37.23
2019-05-18T08:43:42.297Z,36.63
2019-05-18T08:46:08.338Z,38.90
2019-05-18T08:48:34.320Z,38.37
2019-05-18T08:51:00.331Z,38.67
2019-05-18T08:53:26.609Z,38.20
2019-05-18T08:55:52.573Z,40.03
2019-05-18T08:58:18.621Z,40.03
2019-05-18T09:00:44.711Z,40.73
2019-05-18T09:03:10.744Z,42.20
2019-05-18T09:05:36.755Z,39.70
2019-05-18T09:08:02.734Z,41.43
2019-05-18T09:10:28.778Z,41.30
2019-05-18T09:12:54.836Z,38.93
2019-05-18T09:15:20.896Z,32.33
2019-05-18T09:17:47.008Z,35.30
2019-05-18T09:20:13.532Z,35.73
2019-05-18T09:22:39.608Z,37.07
2019-05-18T09:25:06.035Z,38.77
2019-05-18T09:27:32.061Z,38.30
2019-05-18T09:29:58.103Z,36.40
2019-05-18T09:32:24.110Z,36.90
2019-05-18T09:34:50.317Z,36.43
2019-05-18T09:37:16.572Z,31.60
2019-05-18T09:39:42.625Z,31.77
2019-05-18T09:42:08.727Z,31.40
2019-05-18T09:44:34.757Z,32.43
2019-05-18T09:47:00.764Z,32.77
2019-05-18T09:49:26.788Z,32.20
2019-05-18T09:51:52.820Z,32.57
2019-05-18T09:54:19.048Z,31.93
2019-05-18T09:56:45.036Z,31.60
2019-05-18T09:59:11.088Z,28.70
2019-05-18T10:01:37.168Z,29.20
2019-05-18T10:04:03.240Z,30.43
2019-05-18T10:06:31.459Z,29.60
2019-05-18T10:08:57.166Z,28.50
2019-05-18T10:11:23.213Z,28.40
2019-05-18T10:13:49.343Z,25.20
2019-05-18T10:16:15.312Z,23.60
2019-05-18T10:18:41.343Z,24.10
2019-05-18T10:21:07.448Z,25.23
2019-05-18T10:23:33.487Z,24.73
2019-05-18T10:25:59.451Z,26.20
2019-05-18T10:28:25.640Z,26.20
2019-05-18T10:30:51.668Z,26.03
2019-05-18T10:33:17.677Z,24.43
2019-05-18T10:35:43.768Z,25.80
2019-05-18T10:38:09.788Z,24.20
2019-05-18T10:40:35.758Z,22.40
2019-05-18T10:43:01.757Z,21.87
2019-05-18T10:45:27.802Z,21.87
2019-05-18T10:47:53.792Z,21.97
2019-05-18T10:50:19.846Z,22.17
2019-05-18T10:52:45.873Z,20.10
2019-05-18T10:55:12.032Z,20.90
2019-05-18T10:57:38.110Z,20.60
2019-05-18T11:00:09.612Z,20.23
2019-05-18T11:02:35.712Z,20.17
2019-05-18T11:05:02.649Z,18.23
2019-05-18T11:07:29.126Z,16.60
2019-05-18T11:09:55.196Z,16.67
2019-05-18T11:12:21.185Z,17.77
2019-05-18T11:14:47.182Z,19.23
2019-05-18T11:17:13.480Z,19.00
2019-05-18T11:19:39.457Z,16.80
2019-05-18T11:22:05.485Z,15.70
2019-05-18T11:24:31.500Z,18.20
2019-05-18T11:26:57.529Z,17.23
2019-05-18T11:29:24.379Z,17.03
2019-05-18T11:31:50.811Z,16.60
2019-05-18T11:34:16.940Z,16.33
2019-05-18T11:36:43.031Z,15.70
2019-05-18T11:39:09.073Z,17.20
2019-05-18T11:41:35.208Z,17.33
2019-05-18T11:44:02.075Z,16.20
2019-05-18T11:46:28.061Z,16.70
2019-05-18T11:48:54.067Z,15.50
2019-05-18T11:51:20.134Z,16.03
2019-05-18T11:53:57.488Z,16.73
2019-05-18T11:56:13.997Z,16.33
2019-05-18T11:58:40.000Z,17.57
2019-05-18T12:01:06.004Z,16.23
2019-05-18T12:03:31.985Z,14.50
2019-05-18T12:05:58.008Z,15.60
2019-05-18T12:08:24.029Z,14.30
2019-05-18T12:10:50.073Z,15.80
2019-05-18T12:13:16.072Z,15.30
2019-05-18T12:15:42.211Z,14.87
2019-05-18T12:18:08.506Z,16.27
2019-05-18T12:20:34.590Z,15.47
2019-05-18T12:23:00.557Z,14.67
2019-05-18T12:25:26.640Z,15.50
2019-05-18T12:27:52.777Z,15.30
2019-05-18T12:30:19.256Z,16.73
2019-05-18T12:32:45.290Z,16.10
2019-05-18T12:35:11.808Z,16.13
2019-05-18T12:37:37.973Z,16.43
2019-05-18T12:40:06.145Z,15.27
2019-05-18T12:42:32.266Z,16.47
2019-05-18T12:44:58.281Z,17.60
2019-05-18T12:47:24.289Z,16.60
2019-05-18T12:49:50.280Z,16.37
2019-05-18T12:52:16.356Z,17.50
2019-05-18T12:54:46.622Z,16.87
2019-05-18T12:57:10.255Z,17.50
2019-05-18T12:59:36.282Z,17.87
2019-05-18T13:02:02.565Z,17.83
2019-05-18T13:04:28.657Z,18.50
2019-05-18T13:06:54.688Z,19.87
2019-05-18T13:09:23.631Z,16.60
2019-05-18T13:11:48.669Z,15.93
2019-05-18T13:14:14.652Z,17.23
2019-05-18T13:16:40.706Z,18.50
2019-05-18T13:19:06.711Z,18.33
2019-05-18T13:21:33.200Z,16.83
2019-05-18T13:23:59.186Z,16.70
2019-05-18T13:26:25.222Z,16.60
2019-05-18T13:28:51.237Z,17.43
2019-05-18T13:31:17.236Z,17.10
2019-05-18T13:33:43.264Z,16.80
2019-05-18T13:36:09.290Z,17.23
2019-05-18T13:38:35.328Z,17.57
2019-05-18T13:41:01.371Z,18.13
2019-05-18T13:43:27.474Z,17.27
2019-05-18T13:45:53.443Z,15.87
2019-05-18T13:48:19.430Z,16.63
2019-05-18T13:50:45.441Z,16.20
2019-05-18T13:53:11.424Z,16.47
2019-05-18T13:55:37.491Z,14.57
2019-05-18T13:58:03.495Z,15.50
2019-05-18T14:00:29.523Z,15.27
2019-05-18T14:02:55.520Z,15.13
2019-05-18T14:05:21.566Z,16.03
2019-05-18T14:07:47.656Z,16.07
2019-05-18T14:10:13.947Z,14.40
2019-05-18T14:12:40.045Z,14.77
2019-05-18T14:15:08.127Z,15.20
2019-05-18T14:17:34.144Z,15.37
2019-05-18T14:20:00.481Z,14.20
2019-05-18T14:22:26.464Z,15.43
2019-05-18T14:24:52.463Z,15.33
2019-05-18T14:27:18.463Z,14.70
2019-05-18T14:29:44.513Z,15.17
2019-05-18T14:32:11.013Z,14.47
2019-05-18T14:34:37.179Z,15.47
2019-05-18T14:37:03.388Z,14.93
2019-05-18T14:39:29.645Z,15.50
2019-05-18T14:41:55.670Z,15.23
2019-05-18T14:44:21.693Z,15.50
2019-05-18T14:46:47.680Z,14.60
2019-05-18T14:49:13.768Z,14.07
2019-05-18T14:51:39.943Z,15.90
2019-05-18T14:54:05.997Z,15.93
2019-05-18T14:56:32.004Z,13.70
2019-05-18T14:58:57.993Z,15.67
2019-05-18T15:01:24.010Z,14.00
2019-05-18T15:03:49.984Z,14.40
2019-05-18T15:06:16.098Z,12.77
2019-05-18T15:08:42.211Z,16.30
2019-05-18T15:11:08.210Z,13.27
2019-05-18T15:13:34.328Z,12.63
2019-05-18T15:16:00.402Z,12.40
2019-05-18T15:18:26.473Z,12.77
2019-05-18T15:20:52.557Z,12.30
2019-05-18T15:23:18.622Z,13.73
2019-05-18T15:25:50.931Z,12.67
2019-05-18T15:28:12.542Z,13.27
2019-05-18T15:30:38.924Z,13.30
2019-05-18T15:33:05.005Z,12.20
2019-05-18T15:35:31.008Z,12.27
2019-05-18T15:37:57.054Z,12.80
2019-05-18T15:40:23.146Z,12.83
2019-05-18T15:42:49.185Z,13.03
2019-05-18T15:45:17.359Z,12.53
2019-05-18T15:47:43.388Z,11.70
2019-05-18T15:50:09.616Z,12.83
2019-05-18T15:52:35.662Z,12.10
2019-05-18T15:55:02.036Z,12.57
2019-05-18T15:57:28.023Z,11.67
2019-05-18T15:59:54.127Z,12.13
2019-05-18T16:02:20.140Z,12.83
2019-05-18T16:04:46.150Z,12.07
2019-05-18T16:07:12.207Z,11.53
2019-05-18T16:09:38.189Z,11.93
2019-05-18T16:12:04.387Z,10.83
2019-05-18T16:14:30.377Z,11.27
2019-05-18T16:16:56.382Z,10.90
2019-05-18T16:19:22.593Z,11.33
2019-05-18T16:21:48.565Z,11.00
2019-05-18T16:24:14.596Z,10.93
2019-05-18T16:26:40.579Z,10.90
2019-05-18T16:29:06.624Z,11.13
2019-05-18T16:31:32.630Z,10.67
2019-05-18T16:33:58.616Z,10.83
2019-05-18T16:36:24.663Z,10.60
2019-05-18T16:38:50.770Z,12.93
2019-05-18T16:41:16.939Z,10.80
2019-05-18T16:43:43.068Z,11.93
2019-05-18T16:46:09.080Z,12.20
2019-05-18T16:48:35.085Z,11.90
2019-05-18T16:51:01.238Z,12.33
2019-05-18T16:53:27.403Z,13.17
2019-05-18T16:55:53.519Z,12.50
2019-05-18T16:58:19.582Z,13.00
2019-05-18T17:00:45.591Z,14.77
2019-05-18T17:03:11.613Z,15.67
2019-05-18T17:05:37.688Z,15.83
2019-05-18T17:08:03.809Z,20.63
2019-05-18T17:10:30.109Z,22.97
2019-05-18T17:12:56.226Z,16.77
2019-05-18T17:15:22.947Z,15.70
2019-05-18T17:17:48.929Z,17.87
2019-05-18T17:20:15.641Z,17.87
2019-05-18T17:22:41.710Z,18.47
2019-05-18T17:25:08.329Z,20.00
2019-05-18T17:27:34.315Z,22.00
2019-05-18T17:30:00.524Z,22.10
2019-05-18T17:32:26.669Z,23.13
2019-05-18T17:34:52.644Z,22.33
2019-05-18T17:37:18.672Z,22.20
2019-05-18T17:39:44.692Z,23.07
2019-05-18T17:42:10.700Z,24.27
2019-05-18T17:44:37.163Z,24.90
2019-05-18T17:47:03.355Z,23.50
2019-05-18T17:49:29.526Z,23.03
2019-05-18T17:51:55.564Z,21.80
2019-05-18T17:54:21.562Z,21.30
2019-05-18T17:56:47.612Z,24.80
2019-05-18T17:59:13.653Z,24.07
2019-05-18T18:01:39.717Z,22.33
2019-05-18T18:04:05.754Z,23.60
2019-05-18T18:06:31.748Z,22.47
2019-05-18T18:08:57.752Z,23.00
2019-05-18T18:11:23.836Z,24.27
2019-05-18T18:13:49.871Z,25.67
2019-05-18T18:16:15.974Z,24.60
2019-05-18T18:18:42.065Z,22.67
2019-05-18T18:21:08.147Z,21.77
2019-05-18T18:23:34.165Z,23.67
2019-05-18T18:26:00.204Z,24.50
2019-05-18T18:28:26.242Z,23.60
2019-05-18T18:30:52.251Z,23.70
2019-05-18T18:33:18.302Z,23.77
2019-05-18T18:35:44.322Z,22.60
2019-05-18T18:38:10.312Z,23.33
2019-05-18T18:40:36.360Z,23.17
2019-05-18T18:43:02.419Z,22.53
2019-05-18T18:45:28.409Z,23.60
2019-05-18T18:47:54.436Z,21.87
2019-05-18T18:50:20.488Z,22.20
2019-05-18T18:52:46.533Z,23.10
2019-05-18T18:55:13.145Z,23.37
2019-05-18T18:57:41.877Z,24.03
2019-05-18T19:00:07.902Z,22.90
2019-05-18T19:02:33.990Z,21.97
2019-05-18T19:05:00.110Z,21.30
2019-05-18T19:07:26.208Z,20.80
2019-05-18T19:09:52.209Z,21.47
2019-05-18T19:12:18.172Z,20.30
2019-05-18T19:14:44.206Z,20.00
2019-05-18T19:17:10.185Z,20.17
2019-05-18T19:19:36.167Z,20.67
2019-05-18T19:22:02.197Z,19.87
2019-05-18T19:24:28.209Z,18.67
2019-05-18T19:26:54.362Z,17.73
2019-05-18T19:29:20.441Z,18.70
2019-05-18T19:31:46.417Z,19.27
2019-05-18T19:34:12.424Z,19.97
2019-05-18T19:36:38.424Z,17.80
2019-05-18T19:39:04.769Z,19.80
2019-05-18T19:41:30.752Z,19.27
2019-05-18T19:43:56.890Z,19.13
2019-05-18T19:46:22.928Z,17.37
2019-05-18T19:48:48.949Z,18.43
2019-05-18T19:51:16.166Z,16.40
2019-05-18T19:53:42.349Z,17.67
2019-05-18T19:56:08.720Z,16.40
2019-05-18T19:58:34.701Z,17.40
2019-05-18T20:01:00.684Z,17.23
2019-05-18T20:03:26.691Z,15.90
2019-05-18T20:05:52.730Z,17.57
2019-05-18T20:08:18.754Z,16.20
2019-05-18T20:10:45.076Z,16.60
2019-05-18T20:13:11.153Z,16.27
2019-05-18T20:15:37.179Z,16.33
2019-05-18T20:18:03.185Z,17.10
2019-05-18T20:20:29.197Z,16.73
2019-05-18T20:22:55.172Z,15.87
2019-05-18T20:25:21.174Z,16.53
2019-05-18T20:27:47.177Z,15.90
2019-05-18T20:30:13.849Z,16.53
2019-05-18T20:32:39.900Z,16.33
2019-05-18T20:35:06.119Z,25.83
2019-05-18T20:37:32.118Z,30.70
2019-05-18T20:39:58.101Z,44.00
2019-05-18T20:42:24.142Z,23.80
2019-05-18T20:44:50.263Z,53.13
2019-05-18T20:47:16.252Z,19.40
2019-05-18T20:49:42.297Z,23.63
2019-05-18T20:52:08.364Z,17.93
2019-05-18T20:54:34.466Z,16.27
2019-05-18T20:57:00.633Z,16.40
2019-05-18T20:59:26.617Z,15.83
2019-05-18T21:01:52.644Z,16.23
2019-05-18T21:04:18.622Z,14.70
2019-05-18T21:06:45.670Z,15.83
2019-05-18T21:09:11.926Z,15.10
2019-05-18T21:11:38.060Z,14.73
2019-05-18T21:14:04.045Z,16.13
2019-05-18T21:16:33.411Z,14.23
2019-05-18T21:18:59.436Z,17.00
2019-05-18T21:21:26.639Z,15.57
2019-05-18T21:23:52.938Z,14.83
2019-05-18T21:26:18.904Z,16.50
2019-05-18T21:28:55.568Z,16.37
2019-05-18T21:31:12.795Z,15.10
2019-05-18T21:33:38.769Z,14.63
2019-05-18T21:36:04.934Z,16.20
2019-05-18T21:38:31.012Z,16.10
2019-05-18T21:40:57.043Z,16.00
2019-05-18T21:43:23.094Z,15.30
2019-05-18T21:45:49.104Z,15.03
2019-05-18T21:48:15.201Z,15.00
2019-05-18T21:50:41.250Z,14.90
2019-05-18T21:53:07.257Z,15.80
2019-05-18T21:55:33.830Z,16.03
2019-05-18T21:57:59.864Z,15.37
2019-05-18T22:00:26.136Z,15.53
2019-05-18T22:02:52.246Z,15.90
2019-05-18T22:05:18.211Z,15.80
2019-05-18T22:07:44.994Z,16.03
2019-05-18T22:10:24.865Z,16.60
2019-05-18T22:12:39.261Z,15.60
2019-05-18T22:15:06.215Z,15.77
2019-05-18T22:17:34.101Z,16.53
2019-05-18T22:20:00.082Z,15.33
2019-05-18T22:22:26.099Z,14.77
2019-05-18T22:24:52.114Z,16.23
2019-05-18T22:27:18.211Z,15.93
2019-05-18T22:29:44.225Z,16.83
2019-05-18T22:32:10.193Z,16.90
2019-05-18T22:34:36.595Z,16.70
2019-05-18T22:37:02.564Z,16.80
2019-05-18T22:39:28.556Z,17.00
2019-05-18T22:41:54.634Z,18.77
2019-05-18T22:44:20.690Z,17.10
2019-05-18T22:46:46.653Z,15.93
2019-05-18T22:49:12.700Z,16.37
2019-05-18T22:51:38.675Z,17.53
2019-05-18T22:54:05.070Z,16.63
2019-05-18T22:56:31.147Z,17.63
2019-05-18T22:58:57.195Z,16.10
2019-05-18T23:01:23.213Z,17.10
2019-05-18T23:03:51.667Z,15.90
2019-05-18T23:06:17.520Z,17.07
2019-05-18T23:08:43.505Z,19.10
2019-05-18T23:11:09.540Z,17.97
2019-05-18T23:13:35.591Z,134.17
2019-05-18T23:16:01.649Z,302.90
2019-05-18T23:18:27.624Z,126.07
2019-05-18T23:20:53.642Z,150.47
2019-05-18T23:23:19.662Z,39.83
2019-05-18T23:25:45.644Z,37.43
2019-05-18T23:28:11.784Z,37.93
2019-05-18T23:30:37.837Z,24.50
2019-05-18T23:33:03.859Z,23.73
2019-05-18T23:35:29.840Z,25.37
2019-05-18T23:37:56.068Z,25.90
2019-05-18T23:40:22.080Z,26.17
2019-05-18T23:42:48.124Z,23.90
2019-05-18T23:45:14.329Z,26.93
2019-05-18T23:47:40.377Z,26.50
2019-05-18T23:50:06.652Z,31.10
2019-05-18T23:52:32.693Z,22.27
2019-05-18T23:54:58.680Z,27.30
2019-05-18T23:57:24.761Z,26.33
2019-05-18T23:59:50.844Z,21.03
